Time;durP1;ratioP1;P1;durP2;ratioP2;P2;SDS_P1;SDS_P2;PMS_P1;PMS_P2;Temp;Humidity;BMP_temperature;BMP_pressure;BME280_temperature;BME280_humidity;BME280_pressure;Samples;Min_cycle;Max_cycle;Signal;HPM_P1;HPM_P2
2022/12/22 03:26:22;;;;;;;14.88;10.70;;;;;;;8.12;100.00;100209.13;5135846;27;20047;-75
2022/12/22 03:28:48;;;;;;;13.35;11.95;;;;;;;8.12;100.00;100205.63;5115890;27;20110;-75
2022/12/22 03:31:14;;;;;;;14.98;12.13;;;;;;;8.12;100.00;100203.88;5098691;27;20126;-75
2022/12/22 03:33:39;;;;;;;15.52;11.43;;;;;;;8.11;100.00;100198.59;5134099;27;20037;-75
2022/12/22 03:36:06;;;;;;;14.88;12.05;;;;;;;8.11;100.00;100195.97;5111023;27;20031;-75
2022/12/22 03:38:31;;;;;;;15.73;11.38;;;;;;;8.10;100.00;100192.47;5101340;27;20402;-75
2022/12/22 03:40:57;;;;;;;22.55;12.70;;;;;;;8.09;100.00;100189.88;5115706;27;20042;-75
2022/12/22 03:46:29;;;;;;;14.23;11.68;;;;;;;8.05;100.00;100183.78;5117964;27;20035;-75
2022/12/22 03:49:08;;;;;;;12.23;10.80;;;;;;;8.04;100.00;100181.22;5098294;27;20026;-75
2022/12/22 03:51:43;;;;;;;34.25;12.00;;;;;;;8.03;100.00;100176.81;5129172;27;20034;-76
2022/12/22 03:54:10;;;;;;;19.85;11.52;;;;;;;8.02;100.00;100177.75;5122376;27;20113;-75
2022/12/22 03:56:36;;;;;;;30.92;11.52;;;;;;;8.01;100.00;100170.72;5140879;27;20080;-75
2022/12/22 03:59:02;;;;;;;32.55;10.35;;;;;;;7.97;100.00;100167.28;5115296;27;20043;-75
2022/12/22 04:01:28;;;;;;;12.95;10.85;;;;;;;7.95;100.00;100169.94;5109671;27;20285;-75
2022/12/22 04:03:53;;;;;;;13.43;11.57;;;;;;;7.96;100.00;100168.16;5136621;27;20387;-75
2022/12/22 04:06:19;;;;;;;85.03;13.63;;;;;;;7.94;100.00;100160.31;5133268;27;20126;-75
2022/12/22 04:08:45;;;;;;;41.90;12.18;;;;;;;7.94;100.00;100165.59;5133439;27;20039;-76
2022/12/22 04:13:59;;;;;;;17.88;11.00;;;;;;;7.91;100.00;100152.47;5133651;27;20104;-75
2022/12/22 04:16:25;;;;;;;13.70;11.88;;;;;;;7.90;100.00;100153.38;5133023;27;20037;-75
2022/12/22 04:18:51;;;;;;;12.85;11.45;;;;;;;7.87;100.00;100155.22;5126547;27;20023;-75
2022/12/22 04:21:16;;;;;;;14.95;11.50;;;;;;;7.90;100.00;100156.00;5129081;27;20034;-75
2022/12/22 04:23:42;;;;;;;14.63;12.63;;;;;;;7.91;100.00;100157.75;5140641;27;20084;-75
2022/12/22 04:26:07;;;;;;;14.85;12.40;;;;;;;7.94;100.00;100167.34;5135835;27;20436;-75
2022/12/22 04:28:33;;;;;;;16.00;12.85;;;;;;;7.95;100.00;100161.19;5133040;27;20113;-75
2022/12/22 04:30:59;;;;;;;15.82;12.70;;;;;;;7.98;100.00;100169.88;5097911;27;20035;-75
2022/12/22 04:33:24;;;;;;;18.70;13.52;;;;;;;7.97;100.00;100178.69;5147463;27;20046;-75
2022/12/22 04:35:50;;;;;;;18.02;13.27;;;;;;;7.95;100.00;100179.63;5143367;27;20083;-75
2022/12/22 04:38:15;;;;;;;14.75;12.98;;;;;;;7.95;100.00;100172.59;5152650;27;20018;-75
2022/12/22 04:40:40;;;;;;;16.83;12.73;;;;;;;7.98;100.00;100179.56;5134862;27;20174;-75
2022/12/22 04:43:06;;;;;;;15.35;11.98;;;;;;;7.96;100.00;100169.06;5116797;27;20058;-75
2022/12/22 04:45:31;;;;;;;13.38;11.27;;;;;;;7.93;100.00;100169.09;5133490;27;20043;-75
2022/12/22 04:47:57;;;;;;;15.07;12.50;;;;;;;7.91;100.00;100165.66;5152492;27;20061;-75
2022/12/22 04:50:22;;;;;;;20.70;11.68;;;;;;;7.90;100.00;100163.03;5134732;27;20051;-75
2022/12/22 04:52:48;;;;;;;16.83;12.02;;;;;;;7.85;100.00;100162.28;5120629;27;20050;-76
2022/12/22 04:55:13;;;;;;;41.17;11.40;;;;;;;7.86;100.00;100172.81;5134776;27;20037;-75
2022/12/22 04:57:39;;;;;;;107.40;17.10;;;;;;;7.87;100.00;100182.44;5157580;27;20035;-75
2022/12/22 05:00:05;;;;;;;37.95;13.23;;;;;;;7.85;100.00;100181.59;5136033;27;20034;-76
2022/12/22 05:02:31;;;;;;;72.15;13.55;;;;;;;7.88;100.00;100180.66;5136873;27;20038;-75
2022/12/22 05:04:56;;;;;;;33.95;12.13;;;;;;;7.89;100.00;100179.78;5121125;27;20030;-76
2022/12/22 05:07:22;;;;;;;35.38;11.50;;;;;;;7.90;100.00;100184.13;5120995;27;20485;-76
2022/12/22 05:09:47;;;;;;;98.82;14.32;;;;;;;7.89;100.00;100178.00;5136152;27;20118;-76
2022/12/22 05:14:57;;;;;;;43.63;11.60;;;;;;;7.91;100.00;100184.13;5154641;27;20033;-75
2022/12/22 05:17:22;;;;;;;62.40;12.43;;;;;;;7.90;100.00;100174.44;5155287;27;20015;-75
2022/12/22 05:19:47;;;;;;;18.27;11.73;;;;;;;7.92;100.00;100180.56;5154204;27;20042;-76
2022/12/22 05:22:13;;;;;;;25.60;11.70;;;;;;;7.92;100.00;100177.06;5103348;27;20029;-75
2022/12/22 05:24:54;;;;;;;14.38;11.93;;;;;;;7.95;100.00;100188.41;5156376;27;20488;-76
2022/12/22 05:27:19;;;;;;;20.65;11.55;;;;;;;7.95;100.00;100196.31;5155139;27;20027;-76
2022/12/22 05:29:45;;;;;;;23.42;12.13;;;;;;;7.95;100.00;100193.69;5136160;27;20107;-76
2022/12/22 05:32:10;;;;;;;15.32;11.18;;;;;;;7.96;100.00;100197.16;5135532;27;20715;-76
2022/12/22 05:34:36;;;;;;;34.20;12.88;;;;;;;7.96;100.00;100199.81;5120823;27;20027;-76
2022/12/22 05:37:01;;;;;;;33.63;13.23;;;;;;;7.94;100.00;100191.94;5136665;27;20059;-76
2022/12/22 05:39:26;;;;;;;32.72;14.77;;;;;;;7.96;100.00;100195.44;5152441;27;20094;-77
2022/12/22 05:41:52;;;;;;;29.30;14.73;;;;;;;7.97;100.00;100197.16;5120622;27;20031;-76
2022/12/22 05:44:17;;;;;;;54.13;14.98;;;;;;;7.97;100.00;100201.56;5112546;27;20060;-76
2022/12/22 05:46:50;;;;;;;91.78;15.95;;;;;;;7.96;100.00;100198.06;5152025;27;20493;-76
2022/12/22 05:49:15;;;;;;;34.92;14.15;;;;;;;7.97;100.00;100202.41;5151646;27;20083;-74
2022/12/22 05:51:40;;;;;;;23.92;13.95;;;;;;;7.97;100.00;100210.34;5134902;27;20423;-74
2022/12/22 05:54:06;;;;;;;29.05;15.30;;;;;;;7.98;100.00;100217.31;5154379;27;20086;-74
2022/12/22 05:56:31;;;;;;;37.97;15.45;;;;;;;8.00;100.00;100219.09;5137375;27;20038;-75
2022/12/22 05:58:57;;;;;;;35.17;14.68;;;;;;;8.01;100.00;100223.44;5103217;27;20410;-75
2022/12/22 06:01:22;;;;;;;26.65;15.35;;;;;;;8.00;100.00;100232.28;5118033;27;20039;-75
2022/12/22 06:03:48;;;;;;;30.05;14.95;;;;;;;8.00;100.00;100243.69;5137552;27;20173;-75
2022/12/22 06:06:13;;;;;;;20.50;15.35;;;;;;;8.00;100.00;100235.78;5152300;27;20397;-75
2022/12/22 06:08:39;;;;;;;20.60;14.73;;;;;;;8.00;100.00;100243.69;5134852;27;20131;-75
2022/12/22 06:11:04;;;;;;;20.45;15.15;;;;;;;8.03;100.00;100250.66;5115584;27;20026;-75
2022/12/22 06:13:29;;;;;;;19.23;14.35;;;;;;;8.04;100.00;100253.28;5155955;27;20462;-75
2022/12/22 06:15:55;;;;;;;21.75;15.68;;;;;;;8.04;100.00;100250.63;5107824;27;20036;-75
2022/12/22 06:18:20;;;;;;;22.38;15.77;;;;;;;8.01;100.00;100253.34;5133534;27;20027;-76
2022/12/22 06:20:46;;;;;;;22.55;15.85;;;;;;;8.05;100.00;100267.31;5155790;27;20163;-76
2022/12/22 06:23:12;;;;;;;24.30;17.13;;;;;;;8.06;100.00;100266.41;5150906;27;20382;-76
2022/12/22 06:25:37;;;;;;;24.92;17.02;;;;;;;8.07;100.00;100268.16;5135012;27;20034;-75
2022/12/22 06:28:03;;;;;;;24.80;16.48;;;;;;;8.08;100.00;100264.59;5136854;27;20192;-76
2022/12/22 06:30:28;;;;;;;26.08;18.58;;;;;;;8.09;100.00;100267.22;5135542;27;20022;-76
2022/12/22 06:32:54;;;;;;;27.20;17.05;;;;;;;8.10;100.00;100273.38;5137025;27;20114;-76
2022/12/22 06:35:22;;;;;;;31.98;19.20;;;;;;;8.11;100.00;100275.09;5122026;27;20035;-76
2022/12/22 06:37:48;;;;;;;32.10;19.30;;;;;;;8.12;100.00;100280.34;5103960;27;20044;-76
2022/12/22 06:40:13;;;;;;;36.58;21.17;;;;;;;8.13;100.00;100291.75;5154741;27;20042;-76
2022/12/22 06:45:23;;;;;;;39.92;21.23;;;;;;;8.12;100.00;100304.06;5126063;27;20054;-76
2022/12/22 06:47:48;;;;;;;37.65;20.27;;;;;;;8.14;100.00;100301.41;5099776;27;20470;-76
2022/12/22 06:50:13;;;;;;;45.88;22.55;;;;;;;8.12;100.00;100301.44;5116263;27;20019;-76
2022/12/22 06:52:39;;;;;;;42.88;23.90;;;;;;;8.12;100.00;100306.72;5142576;27;20039;-76
2022/12/22 06:55:05;;;;;;;43.35;21.58;;;;;;;8.09;100.00;100306.78;5116257;27;20498;-76
2022/12/22 06:57:31;;;;;;;44.90;22.63;;;;;;;8.07;100.00;100316.50;5141563;27;20023;-76
2022/12/22 06:59:56;;;;;;;44.10;22.52;;;;;;;8.07;100.00;100331.44;5130049;27;20401;-76
2022/12/22 07:02:22;;;;;;;54.38;24.27;;;;;;;8.05;100.00;100328.84;5140904;27;20035;-76
2022/12/22 07:04:47;;;;;;;54.97;25.38;;;;;;;8.04;100.00;100334.16;5125971;27;20038;-76
2022/12/22 07:07:12;;;;;;;53.88;25.65;;;;;;;8.02;100.00;100344.72;5142317;27;20033;-76
2022/12/22 07:09:38;;;;;;;54.75;25.83;;;;;;;8.03;100.00;100341.16;5115979;27;20084;-74
2022/12/22 07:12:04;;;;;;;61.67;29.33;;;;;;;8.00;100.00;100343.00;5130551;27;20042;-74
2022/12/22 07:14:29;;;;;;;49.72;26.50;;;;;;;7.97;100.00;100344.81;5119270;27;20125;-74
2022/12/22 07:16:54;;;;;;;50.97;25.15;;;;;;;7.96;100.00;100353.63;5110250;28;20035;-74
2022/12/22 07:19:20;;;;;;;55.40;27.55;;;;;;;7.94;100.00;100347.50;5129290;27;20026;-74
2022/12/22 07:21:47;;;;;;;55.33;27.33;;;;;;;7.92;100.00;100346.66;5122099;27;20431;-74
2022/12/22 07:24:13;;;;;;;53.30;25.67;;;;;;;7.91;100.00;100357.22;5141785;27;20037;-76
2022/12/22 07:26:38;;;;;;;51.22;25.58;;;;;;;7.87;100.00;100347.66;5134496;27;20486;-76
2022/12/22 07:29:04;;;;;;;50.65;25.38;;;;;;;7.87;100.00;100348.53;5128947;27;20414;-75
2022/12/22 07:31:30;;;;;;;56.15;26.00;;;;;;;7.86;100.00;100353.81;5130239;27;20113;-75
2022/12/22 07:33:55;;;;;;;52.30;25.45;;;;;;;7.85;100.00;100365.25;5104605;27;20083;-78
2022/12/22 07:36:21;;;;;;;53.20;26.02;;;;;;;7.85;100.00;100368.75;5129241;27;20108;-75
2022/12/22 07:38:49;;;;;;;54.78;26.33;;;;;;;7.84;100.00;100367.03;5152650;27;21100;-76
2022/12/22 07:44:01;;;;;;;66.75;30.00;;;;;;;7.82;100.00;100375.88;5144949;27;20562;-75
2022/12/22 07:46:30;;;;;;;59.95;26.90;;;;;;;7.84;100.00;100392.50;5138007;27;20466;-75
2022/12/22 07:51:48;;;;;;;;;;;;;;;7.86;100.00;100402.16;5111582;27;20045;-76
2022/12/22 07:54:14;;;;;;;52.17;22.85;;;;;;;7.83;100.00;100403.97;5115855;27;20370;-76
2022/12/22 07:56:41;;;;;;;52.08;24.17;;;;;;;7.81;100.00;100411.00;5125422;27;20031;-76
2022/12/22 07:59:07;;;;;;;46.65;23.95;;;;;;;7.77;100.00;100425.16;5120137;27;20390;-76
2022/12/22 08:01:33;;;;;;;50.38;23.92;;;;;;;7.77;100.00;100438.34;5123336;27;20106;-76
2022/12/22 08:03:59;;;;;;;48.80;22.38;;;;;;;7.72;100.00;100438.41;5131897;27;20023;-76
2022/12/22 08:06:25;;;;;;;54.35;24.17;;;;;;;7.75;100.00;100451.53;5148347;27;20118;-76
2022/12/22 08:08:50;;;;;;;50.03;22.95;;;;;;;7.73;100.00;100446.28;5138567;27;20039;-76
2022/12/22 08:11:16;;;;;;;57.20;24.25;;;;;;;7.74;100.00;100466.50;5129854;27;20054;-76
2022/12/22 08:13:42;;;;;;;50.05;23.80;;;;;;;7.70;100.00;100456.00;5127895;27;20046;-76
2022/12/22 08:16:11;;;;;;;45.90;22.60;;;;;;;7.70;100.00;100456.88;5094243;27;20018;-75
2022/12/22 08:18:37;;;;;;;44.83;21.60;;;;;;;7.68;100.00;100458.66;5137828;27;20055;-76
2022/12/22 08:21:04;;;;;;;44.83;22.80;;;;;;;7.68;100.00;100469.22;5139854;27;20531;-76
2022/12/22 08:23:31;;;;;;;45.95;23.17;;;;;;;7.66;100.00;100454.31;5117748;27;20493;-76
2022/12/22 08:26:25;;;;;;;43.15;22.10;;;;;;;7.68;100.00;100460.44;5115716;27;20047;-75
2022/12/22 08:28:58;;;;;;;45.88;22.38;;;;;;;7.66;100.00;100467.50;5136373;27;20126;-75
2022/12/22 08:31:26;;;;;;;47.25;23.08;;;;;;;7.63;100.00;100475.47;5104777;27;20090;-76
2022/12/22 08:33:53;;;;;;;47.15;21.13;;;;;;;7.62;100.00;100479.00;5127508;27;20011;-76
2022/12/22 08:36:19;;;;;;;52.40;22.88;;;;;;;7.62;100.00;100484.28;5133756;27;20058;-76
2022/12/22 08:38:45;;;;;;;46.72;22.98;;;;;;;7.60;100.00;100494.81;5131324;27;20081;-76
2022/12/22 08:41:14;;;;;;;47.53;23.65;;;;;;;7.60;100.00;100504.50;5146371;27;20022;-76
2022/12/22 08:43:40;;;;;;;46.95;22.33;;;;;;;7.58;100.00;100522.97;5132872;27;20087;-76
2022/12/22 08:46:05;;;;;;;40.78;20.80;;;;;;;7.59;100.00;100535.25;5153363;27;20034;-76
2022/12/22 08:48:31;;;;;;;47.42;23.55;;;;;;;7.59;100.00;100537.00;5153383;27;20118;-76
2022/12/22 08:50:57;;;;;;;45.85;21.75;;;;;;;7.57;100.00;100534.41;5120180;27;20396;-76
2022/12/22 08:53:22;;;;;;;43.95;20.60;;;;;;;7.56;100.00;100537.03;5150911;27;20091;-76
2022/12/22 08:55:53;;;;;;;48.78;22.48;;;;;;;7.54;100.00;100540.59;5124745;27;20058;-76
2022/12/22 08:58:19;;;;;;;47.65;23.60;;;;;;;7.53;100.00;100544.09;5126062;27;20035;-77
2022/12/22 09:00:45;;;;;;;44.17;22.60;;;;;;;7.51;100.00;100545.88;5110597;27;20045;-76
2022/12/22 09:03:11;;;;;;;46.20;22.17;;;;;;;7.48;100.00;100556.47;5103233;27;20393;-76
2022/12/22 09:05:37;;;;;;;43.03;22.10;;;;;;;7.45;100.00;100563.56;5140302;27;20043;-77
2022/12/22 09:08:04;;;;;;;41.53;20.95;;;;;;;7.43;100.00;100560.06;5084268;27;20482;-77
2022/12/22 09:10:30;;;;;;;44.25;21.55;;;;;;;7.39;100.00;100561.84;5138994;27;20126;-77
2022/12/22 09:12:57;;;;;;;47.20;20.80;;;;;;;7.39;100.00;100561.84;5105115;28;20039;-77
2022/12/22 09:15:22;;;;;;;49.40;22.33;;;;;;;7.37;100.00;100562.75;5127319;27;20030;-77
2022/12/22 09:17:48;;;;;;;47.08;21.40;;;;;;;7.36;100.00;100568.94;5111512;27;20049;-77
2022/12/22 09:20:13;;;;;;;44.22;21.58;;;;;;;7.33;100.00;100569.84;5112576;27;20038;-77
2022/12/22 09:22:39;;;;;;;50.40;23.02;;;;;;;7.34;100.00;100571.56;5130433;27;20026;-77
2022/12/22 09:25:05;;;;;;;48.22;22.00;;;;;;;7.32;100.00;100579.53;5109862;28;20043;-77
2022/12/22 09:27:31;;;;;;;41.92;21.23;;;;;;;7.34;100.00;100571.56;5116326;27;20023;-76
2022/12/22 09:29:56;;;;;;;46.40;22.33;;;;;;;7.36;100.00;100590.88;5096807;27;20486;-77
2022/12/22 09:32:22;;;;;;;53.97;24.08;;;;;;;7.35;100.00;100594.41;5127044;27;20523;-77
2022/12/22 09:34:48;;;;;;;42.08;22.52;;;;;;;7.37;100.00;100599.66;5125792;27;20043;-76
2022/12/22 09:37:14;;;;;;;52.40;24.45;;;;;;;7.40;100.00;100597.84;5132494;27;20035;-77
2022/12/22 09:39:40;;;;;;;58.20;26.25;;;;;;;7.42;100.00;100595.19;5138500;27;20398;-76
2022/12/22 09:42:13;;;;;;;49.38;22.63;;;;;;;7.45;100.00;100590.75;5117270;27;20031;-77
2022/12/22 09:44:45;;;;;;;52.40;23.45;;;;;;;7.46;100.00;100592.50;5115879;27;20034;-76
2022/12/22 09:47:25;;;;;;;47.67;22.55;;;;;;;7.47;100.00;100602.16;5128625;27;20027;-77
2022/12/22 09:49:51;;;;;;;51.65;22.15;;;;;;;7.45;100.00;100600.44;5153033;27;20486;-77
2022/12/22 09:52:32;;;;;;;43.38;21.58;;;;;;;7.45;100.00;100592.53;5132206;27;20114;-77
2022/12/22 09:54:58;;;;;;;47.08;22.38;;;;;;;7.49;100.00;100604.75;5133517;27;20042;-77
2022/12/22 09:57:30;;;;;;;49.67;23.45;;;;;;;7.51;100.00;100610.88;5134127;27;20030;-77
2022/12/22 10:00:17;;;;;;;53.08;23.27;;;;;;;7.52;100.00;100608.25;5150268;27;20031;-77
2022/12/22 10:02:55;;;;;;;54.05;24.35;;;;;;;7.59;100.00;100614.31;5146036;27;20080;-77
2022/12/22 10:05:29;;;;;;;52.38;23.35;;;;;;;7.62;100.00;100601.09;5145919;27;20076;-76
2022/12/22 10:08:14;;;;;;;49.03;22.60;;;;;;;7.63;100.00;100610.72;5123065;27;20031;-76
2022/12/22 10:10:40;;;;;;;57.40;24.83;;;;;;;7.62;100.00;100616.91;5129326;27;20519;-76
2022/12/22 10:13:06;;;;;;;51.80;22.05;;;;;;;7.64;100.00;100628.31;5151448;27;20019;-75
2022/12/22 10:15:37;;;;;;;46.40;22.88;;;;;;;7.66;100.00;100628.25;5097898;27;20028;-76
2022/12/22 10:18:10;;;;;;;49.05;23.30;;;;;;;7.65;100.00;100630.03;5150130;27;20431;-76
2022/12/22 10:20:38;;;;;;;49.65;23.52;;;;;;;7.60;100.00;100621.31;5154746;27;20037;-75
2022/12/22 10:23:21;;;;;;;44.85;22.63;;;;;;;7.60;100.00;100633.63;5114214;27;20026;-75
2022/12/22 10:25:53;;;;;;;48.63;23.98;;;;;;;7.59;100.00;100634.50;5135065;27;20031;-75
2022/12/22 10:28:25;;;;;;;41.08;20.25;;;;;;;7.58;100.00;100640.66;5114502;27;20052;-76
2022/12/22 10:31:27;;;;;;;38.22;19.13;;;;;;;7.52;100.00;100639.00;5145399;27;20545;-76
2022/12/22 10:34:00;;;;;;;44.13;20.45;;;;;;;7.48;100.00;100643.41;5117118;27;20490;-75
2022/12/22 10:36:29;;;;;;;42.22;19.77;;;;;;;7.46;100.00;100639.06;5137491;27;20027;-76
2022/12/22 10:39:07;;;;;;;40.20;20.17;;;;;;;7.51;100.00;100642.50;5123286;27;20070;-76
2022/12/22 10:41:41;;;;;;;37.35;16.88;;;;;;;7.57;100.00;100652.97;5156011;27;20035;-75
2022/12/22 10:44:20;;;;;;;32.75;17.00;;;;;;;7.58;100.00;100641.53;5135295;27;20035;-75
2022/12/22 10:46:51;;;;;;;28.98;14.95;;;;;;;7.56;100.00;100638.03;5116438;27;20117;-76
2022/12/22 10:49:21;;;;;;;25.73;15.40;;;;;;;7.54;100.00;100643.34;5135213;27;20031;-75
2022/12/22 10:51:51;;;;;;;26.48;14.63;;;;;;;7.54;100.00;100643.34;5134586;27;20066;-75
2022/12/22 10:54:29;;;;;;;29.83;15.27;;;;;;;7.58;100.00;100646.81;5123211;27;20038;-76
2022/12/22 10:57:17;;;;;;;29.30;16.25;;;;;;;7.59;100.00;100648.56;5140620;27;20034;-75
2022/12/22 10:59:50;;;;;;;33.72;14.93;;;;;;;7.58;100.00;100652.09;5105635;27;20100;-76
2022/12/22 11:02:36;;;;;;;36.33;15.05;;;;;;;7.67;100.00;100653.75;5134996;27;20481;-76
2022/12/22 11:05:08;;;;;;;33.65;14.82;;;;;;;7.66;100.00;100659.88;5135299;27;20062;-76
2022/12/22 11:07:37;;;;;;;30.92;14.68;;;;;;;7.64;100.00;100659.94;5136935;27;20027;-76
2022/12/22 11:10:16;;;;;;;30.65;14.55;;;;;;;7.59;100.00;100667.03;5125791;27;20026;-76
2022/12/22 11:13:08;;;;;;;32.25;14.02;;;;;;;7.60;100.00;100666.13;5116237;27;20034;-76
2022/12/22 11:16:03;;;;;;;31.77;14.82;;;;;;;7.64;100.00;100673.09;5145819;27;20054;-76
2022/12/22 11:18:37;;;;;;;31.10;14.45;;;;;;;7.66;100.00;100667.78;5146016;27;20387;-76
2022/12/22 11:21:14;;;;;;;27.50;14.63;;;;;;;7.69;100.00;100673.00;5115864;27;20039;-76
2022/12/22 11:24:22;;;;;;;29.27;15.20;;;;;;;7.71;100.00;100676.50;5115758;27;20390;-77
2022/12/22 11:27:18;;;;;;;27.60;13.82;;;;;;;7.75;100.00;100683.50;5135108;27;20051;-76
2022/12/22 11:29:58;;;;;;;31.08;14.35;;;;;;;7.80;100.00;100684.31;5134774;27;20026;-76
2022/12/22 11:32:45;;;;;;;30.85;14.32;;;;;;;7.85;100.00;100686.88;5134342;27;20451;-76
2022/12/22 11:35:29;;;;;;;27.23;13.60;;;;;;;7.86;100.00;100691.25;5133579;27;20023;-76
2022/12/22 11:38:02;;;;;;;21.65;12.55;;;;;;;7.78;100.00;100680.81;5129375;27;20038;-76
2022/12/22 11:40:45;;;;;;;26.02;12.90;;;;;;;7.79;100.00;100694.84;5121681;27;20386;-76
2022/12/22 11:43:26;;;;;;;29.30;13.70;;;;;;;7.79;100.00;100692.22;5154764;27;20054;-76
2022/12/22 11:46:12;;;;;;;33.10;16.40;;;;;;;7.74;100.00;100687.03;5154385;27;20045;-76
2022/12/22 11:48:47;;;;;;;33.47;16.20;;;;;;;7.76;100.00;100695.78;5136361;27;20093;-77
2022/12/22 11:51:29;;;;;;;37.85;18.83;;;;;;;7.74;100.00;100695.81;5120455;27;20030;-77
2022/12/22 11:54:34;;;;;;;34.42;19.75;;;;;;;7.79;100.00;100693.13;5131568;27;20056;-77
2022/12/22 11:57:41;;;;;;;39.10;24.05;;;;;;;7.79;100.00;100687.84;5115068;27;20038;-76
2022/12/22 12:00:12;;;;;;;41.97;23.25;;;;;;;7.75;100.00;100688.78;5110521;27;20038;-77
2022/12/22 12:03:10;;;;;;;37.85;22.52;;;;;;;7.75;100.00;100688.78;5112890;27;20031;-77
2022/12/22 12:05:54;;;;;;;37.80;24.13;;;;;;;7.74;100.00;100682.63;5117525;27;20038;-77
2022/12/22 12:08:34;;;;;;;43.72;26.33;;;;;;;7.72;100.00;100683.53;5102290;27;20031;-77
2022/12/22 12:11:18;;;;;;;47.13;26.23;;;;;;;7.73;100.00;100678.22;5140868;27;20031;-77
2022/12/22 12:13:56;;;;;;;42.35;25.38;;;;;;;7.79;100.00;100682.56;5125834;27;20027;-77
2022/12/22 12:16:25;;;;;;;37.40;21.45;;;;;;;7.82;100.00;100668.47;5139818;27;20038;-78
2022/12/22 12:18:59;;;;;;;42.38;26.33;;;;;;;7.82;100.00;100666.72;5150959;27;20047;-77
2022/12/22 12:21:29;;;;;;;35.50;22.10;;;;;;;7.83;100.00;100662.31;5152813;27;20029;-77
2022/12/22 12:24:19;;;;;;;37.13;23.23;;;;;;;7.85;100.00;100657.88;5135694;27;20390;-77
2022/12/22 12:27:03;;;;;;;36.85;22.63;;;;;;;7.92;100.00;100649.00;5130869;27;20389;-77
2022/12/22 12:29:43;;;;;;;32.88;20.05;;;;;;;8.01;100.00;100635.69;5128141;27;20126;-77
2022/12/22 12:32:08;;;;;;;25.70;17.45;;;;;;;8.08;100.00;100644.38;5146563;27;20031;-77
2022/12/22 12:34:38;;;;;;;29.17;18.42;;;;;;;8.11;100.00;100636.41;5141314;27;20405;-77
2022/12/22 12:37:17;;;;;;;31.20;18.95;;;;;;;8.08;100.00;100631.19;5154123;27;20073;-77
2022/12/22 12:40:03;;;;;;;30.67;18.25;;;;;;;8.11;100.00;100632.03;5116972;27;20034;-77
2022/12/22 12:42:38;;;;;;;32.85;19.48;;;;;;;8.10;100.00;100634.69;5139613;27;20031;-77
2022/12/22 12:45:49;;;;;;;28.00;17.83;;;;;;;8.16;100.00;100637.25;5133872;27;20027;-77
2022/12/22 12:48:24;;;;;;;28.95;17.35;;;;;;;8.17;100.00;100625.78;5130104;27;20070;-77
2022/12/22 12:50:53;;;;;;;30.70;17.75;;;;;;;8.16;100.00;100631.97;5153399;27;20478;-77
2022/12/22 12:53:21;;;;;;;31.67;18.52;;;;;;;8.12;100.00;100632.88;5153435;27;20047;-77
2022/12/22 12:55:50;;;;;;;31.45;18.73;;;;;;;8.09;100.00;100632.94;5120129;27;20031;-77
2022/12/22 12:58:34;;;;;;;27.33;18.10;;;;;;;8.11;100.00;100637.31;5128767;27;20038;-78
2022/12/22 13:01:02;;;;;;;28.23;18.70;;;;;;;8.04;100.00;100627.72;5153512;27;20530;-78
2022/12/22 13:03:27;;;;;;;27.52;18.67;;;;;;;8.04;100.00;100637.41;5117522;27;20050;-78
2022/12/22 13:05:59;;;;;;;27.67;19.55;;;;;;;8.03;100.00;100633.03;5134579;27;20058;-78
2022/12/22 13:08:32;;;;;;;31.35;20.77;;;;;;;8.05;100.00;100633.88;5153342;27;20031;-78
2022/12/22 13:10:58;;;;;;;27.50;19.13;;;;;;;8.03;100.00;100628.59;5131221;27;20134;-77
2022/12/22 13:13:23;;;;;;;29.50;21.60;;;;;;;8.04;100.00;100632.16;5153566;27;20026;-78
2022/12/22 13:16:09;;;;;;;28.88;18.60;;;;;;;8.10;100.00;100621.50;5134800;27;20011;-78
2022/12/22 13:18:38;;;;;;;27.65;19.83;;;;;;;8.05;100.00;100612.78;5125940;27;20065;-77
2022/12/22 13:21:13;;;;;;;28.98;19.23;;;;;;;8.06;100.00;100625.94;5137903;27;20530;-77
2022/12/22 13:23:43;;;;;;;29.08;19.13;;;;;;;8.04;100.00;100622.47;5150138;27;20113;-77
2022/12/22 13:26:17;;;;;;;28.00;19.02;;;;;;;8.03;100.00;100625.09;5148255;27;20035;-78
2022/12/22 13:28:55;;;;;;;29.38;18.42;;;;;;;8.06;100.00;100631.22;5150661;27;20027;-78
2022/12/22 13:31:29;;;;;;;30.02;18.45;;;;;;;8.00;100.00;100627.81;5125011;27;20059;-78
2022/12/22 13:34:21;;;;;;;30.10;20.42;;;;;;;8.01;100.00;100627.78;5145603;27;20539;-87
2022/12/22 13:36:50;;;;;;;30.77;18.35;;;;;;;8.01;100.00;100632.16;5154908;27;20113;-87
2022/12/22 13:39:16;;;;;;;28.63;17.92;;;;;;;8.00;100.00;100618.13;5131288;27;20035;-87
2022/12/22 13:41:44;;;;;;;28.23;16.48;;;;;;;8.03;100.00;100617.19;5150697;27;20046;-87
2022/12/22 13:44:15;;;;;;;27.23;17.20;;;;;;;7.98;100.00;100612.84;5153797;27;20034;-88
2022/12/22 13:46:41;;;;;;;30.80;16.63;;;;;;;8.01;100.00;100611.06;5138418;27;20103;-87
2022/12/22 13:49:16;;;;;;;23.73;16.98;;;;;;;8.01;100.00;100604.06;5156665;27;20046;-87
2022/12/22 13:51:42;;;;;;;24.98;16.70;;;;;;;8.02;100.00;100607.56;5156783;27;20059;-88
2022/12/22 13:54:07;;;;;;;26.80;17.33;;;;;;;8.04;100.00;100611.03;5151965;27;20126;-88
2022/12/22 13:56:32;;;;;;;29.85;17.75;;;;;;;8.03;100.00;100611.91;5152074;27;20520;-88
2022/12/22 13:59:01;;;;;;;29.85;19.05;;;;;;;7.99;100.00;100603.19;5134724;27;20496;-88
2022/12/22 14:01:27;;;;;;;29.40;18.27;;;;;;;8.00;100.00;100596.16;5137184;27;20019;-88
2022/12/22 14:03:57;;;;;;;33.47;18.55;;;;;;;8.02;100.00;100602.28;5153325;27;20041;-88
2022/12/22 14:06:34;;;;;;;29.35;18.13;;;;;;;8.01;100.00;100585.59;5125316;27;20037;-89
2022/12/22 14:09:22;;;;;;;29.98;18.85;;;;;;;8.03;100.00;100588.19;5110746;27;20122;-88
2022/12/22 14:11:54;;;;;;;27.60;17.98;;;;;;;8.03;100.00;100581.13;5149461;27;20427;-88
2022/12/22 14:14:24;;;;;;;22.20;15.52;;;;;;;8.03;100.00;100581.13;5148389;27;20023;-88
2022/12/22 14:16:51;;;;;;;23.55;14.35;;;;;;;8.02;100.00;100589.09;5142882;27;20445;-89
2022/12/22 14:19:18;;;;;;;22.42;14.07;;;;;;;7.97;100.00;100582.13;5151786;27;20049;-88
2022/12/22 14:21:48;;;;;;;22.77;12.68;;;;;;;7.92;100.00;100581.31;5128730;27;20046;-88
2022/12/22 14:24:21;;;;;;;20.05;12.32;;;;;;;7.95;100.00;100573.34;5130347;27;20101;-88
2022/12/22 14:26:47;;;;;;;20.23;11.68;;;;;;;7.91;100.00;100565.50;5135077;27;20039;-89
2022/12/22 14:29:18;;;;;;;15.43;11.57;;;;;;;7.89;100.00;100570.81;5117869;27;20392;-89
2022/12/22 14:32:11;;;;;;;16.70;11.43;;;;;;;7.90;100.00;100563.78;5154503;27;20034;-89
2022/12/22 14:34:37;;;;;;;16.65;10.88;;;;;;;7.84;100.00;100554.22;5128270;27;20035;-88
2022/12/22 14:37:02;;;;;;;20.23;11.95;;;;;;;7.80;100.00;100552.50;5137602;27;20017;-88
2022/12/22 14:39:30;;;;;;;20.48;11.10;;;;;;;7.80;100.00;100562.19;5112709;27;20134;-87
2022/12/22 14:42:02;;;;;;;16.80;10.77;;;;;;;7.77;100.00;100557.81;5144002;27;20042;-87
2022/12/22 14:44:31;;;;;;;24.10;13.07;;;;;;;7.75;100.00;100552.56;5135361;27;20042;-88
2022/12/22 14:47:00;;;;;;;20.30;13.10;;;;;;;7.73;100.00;100551.72;5140237;27;20031;-87
2022/12/22 14:49:26;;;;;;;17.58;11.25;;;;;;;7.71;100.00;100542.09;5138306;27;20033;-87
2022/12/22 14:51:57;;;;;;;17.77;11.40;;;;;;;7.69;100.00;100538.59;5121153;27;20035;-87
2022/12/22 14:54:26;;;;;;;21.17;12.52;;;;;;;7.69;100.00;100533.31;5126121;27;20042;-87
2022/12/22 14:56:56;;;;;;;14.07;10.60;;;;;;;7.66;100.00;100536.88;5122526;27;20022;-87
2022/12/22 14:59:27;;;;;;;14.55;9.77;;;;;;;7.64;100.00;100536.06;5130746;27;20119;-87
2022/12/22 15:02:02;;;;;;;15.70;10.88;;;;;;;7.64;100.00;100540.44;5116983;27;20074;-87
2022/12/22 15:04:29;;;;;;;21.20;11.48;;;;;;;7.64;100.00;100540.44;5123254;27;20076;-87
2022/12/22 15:07:15;;;;;;;18.10;11.15;;;;;;;7.64;100.00;100543.97;5127674;27;20398;-87